.
WxDataArchive / Data Records for 2010-09-20
2010-09-19 September 2010 2010-09-21

Data Records for Monday, 20 September 2010

Time	Temp	Chill	HIndex	Humid	Dewpt	 Wind 	HiWind	WindDir	Rain 	Barom 
-----	----	-----	------	-----	-----	------	------	-------	-----	----- 
00:00	61.2	61.2	61.2	78	54.3	0	2	90	0.00	30.139 
00:05	61.2	61.2	61.2	78	54.3	1	3	90	0.00	30.139 
00:10	61.0	61.0	61.0	78	54.1	1	3	90	0.00	30.139 
00:15	61.0	61.0	61.0	79	54.4	0	3	90	0.00	30.137 
00:20	60.9	60.9	60.9	79	54.3	0	2	90	0.00	30.137 
00:25	60.9	60.9	60.9	79	54.3	0	3	90	0.00	30.137 
00:30	60.7	60.7	60.7	78	53.8	0	3	90	0.00	30.140 
00:35	60.7	60.7	60.7	79	54.1	0	3	90	0.00	30.140 
00:40	60.5	60.5	60.5	79	54.0	1	2	90	0.00	30.140 
00:45	60.5	60.5	60.5	79	54.0	0	1	90	0.00	30.145 
00:50	60.4	60.4	60.4	79	53.9	0	0	---	0.00	30.145 
00:55	60.2	60.2	60.2	78	53.3	1	4	90	0.00	30.145 
01:00	60.1	60.1	60.1	78	53.2	0	4	90	0.00	30.143 
01:05	59.9	59.9	59.9	78	53.0	0	2	90	0.00	30.143 
01:10	59.8	59.8	59.8	78	52.9	0	1	90	0.00	30.143 
01:15	59.6	59.6	59.6	78	52.7	0	1	90	0.00	30.138 
01:20	59.5	59.5	59.5	79	53.0	0	1	90	0.00	30.138 
01:25	59.3	59.3	59.3	79	52.8	0	0	---	0.00	30.138 
01:30	59.2	59.2	59.2	80	53.0	0	0	---	0.00	30.142 
01:35	59.0	59.0	59.0	81	53.2	0	0	---	0.00	30.142 
01:40	58.9	58.9	58.9	81	53.1	0	0	---	0.00	30.142 
01:45	58.7	58.7	58.7	82	53.2	0	0	---	0.00	30.139 
01:50	58.6	58.6	58.6	82	53.1	0	0	---	0.00	30.139 
01:55	58.3	58.3	58.3	82	52.8	0	0	---	0.00	30.139 
02:00	58.3	58.3	58.3	83	53.2	0	0	---	0.00	30.135 
02:05	58.1	58.1	58.1	83	53.0	0	0	---	0.00	30.135 
02:10	58.0	58.0	58.0	83	52.9	0	0	---	0.00	30.135 
02:15	57.8	57.8	57.8	83	52.7	0	0	---	0.00	30.128 
02:20	57.8	57.8	57.8	83	52.7	0	0	---	0.00	30.128 
02:25	57.6	57.6	57.6	82	52.1	0	1	90	0.00	30.128 
02:30	57.6	57.6	57.6	82	52.1	0	0	---	0.00	30.132 
02:35	57.6	57.6	57.6	82	52.1	0	1	90	0.00	30.132 
02:40	57.6	57.6	57.6	82	52.1	0	1	90	0.00	30.132 
02:45	57.8	57.8	57.8	81	52.0	0	1	90	0.00	30.133 
02:50	58.0	58.0	58.0	81	52.2	0	1	90	0.00	30.133 
02:55	58.1	58.1	58.1	80	52.0	0	1	90	0.00	30.133 
03:00	58.3	58.3	58.3	81	52.5	0	0	---	0.00	30.136 
03:05	58.3	58.3	58.3	80	52.2	0	0	---	0.00	30.136 
03:10	58.1	58.1	58.1	80	52.0	0	0	---	0.00	30.136 
03:15	58.1	58.1	58.1	79	51.6	0	1	90	0.00	30.135 
03:20	58.1	58.1	58.1	79	51.6	0	1	90	0.00	30.135 
03:25	58.1	58.1	58.1	79	51.6	0	2	90	0.00	30.135 
03:30	58.3	58.3	58.3	79	51.8	0	0	---	0.00	30.135 
03:35	58.3	58.3	58.3	79	51.8	0	0	---	0.00	30.135 
03:40	58.1	58.1	58.1	79	51.6	0	0	---	0.00	30.135 
03:45	58.1	58.1	58.1	78	51.3	0	0	---	0.00	30.136 
03:50	58.1	58.1	58.1	79	51.6	0	0	---	0.00	30.136 
03:55	58.1	58.1	58.1	78	51.3	0	0	---	0.00	30.136 
04:00	58.1	58.1	58.1	77	50.9	0	3	90	0.00	30.136 
04:05	58.3	58.3	58.3	77	51.1	0	2	90	0.00	30.136 
04:10	58.3	58.3	58.3	77	51.1	0	1	90	0.00	30.136 
04:15	58.4	58.4	58.4	78	51.6	0	2	90	0.00	30.136 
04:20	58.4	58.4	58.4	77	51.2	0	3	90	0.00	30.136 
04:25	58.4	58.4	58.4	77	51.2	0	2	90	0.00	30.136 
04:30	58.4	58.4	58.4	77	51.2	0	2	90	0.00	30.132 
04:35	58.4	58.4	58.4	77	51.2	0	3	90	0.00	30.132 
04:40	58.4	58.4	58.4	77	51.2	0	2	90	0.00	30.132 
04:45	58.4	58.4	58.4	77	51.2	0	2	90	0.00	30.129 
04:50	58.4	58.4	58.4	77	51.2	0	2	90	0.00	30.129 
04:55	58.3	58.3	58.3	77	51.1	0	2	90	0.00	30.129 
05:00	58.3	58.3	58.3	77	51.1	0	3	90	0.00	30.131 
05:05	58.3	58.3	58.3	77	51.1	0	2	90	0.00	30.131 
05:10	58.1	58.1	58.1	77	50.9	0	2	90	0.00	30.131 
05:15	58.1	58.1	58.1	77	50.9	1	2	90	0.00	30.130 
05:20	58.1	58.1	58.1	77	50.9	1	3	90	0.00	30.130 
05:25	58.1	58.1	58.1	77	50.9	1	3	90	0.00	30.130 
05:30	58.1	58.1	58.1	77	50.9	0	2	90	0.00	30.134 
05:35	58.1	58.1	58.1	77	50.9	0	1	90	0.00	30.134 
05:40	58.1	58.1	58.1	77	50.9	0	2	90	0.00	30.134 
05:45	58.0	58.0	58.0	77	50.8	0	2	90	0.00	30.136 
05:50	58.0	58.0	58.0	77	50.8	1	3	90	0.00	30.136 
05:55	58.0	58.0	58.0	78	51.2	0	2	90	0.00	30.136 
06:00	58.0	58.0	58.0	78	51.2	0	1	90	0.00	30.137 
06:05	57.8	57.8	57.8	78	51.0	1	3	90	0.00	30.137 
06:10	57.8	57.8	57.8	78	51.0	0	2	90	0.00	30.137 
06:15	57.8	57.8	57.8	78	51.0	1	2	90	0.00	30.139 
06:20	57.6	57.6	57.6	78	50.8	1	3	90	0.00	30.139 
06:25	57.6	57.6	57.6	78	50.8	0	3	90	0.00	30.139 
06:30	57.5	57.5	57.5	78	50.7	0	2	90	0.00	30.145 
06:35	57.5	57.5	57.5	78	50.7	1	3	90	0.00	30.145 
06:40	57.5	57.5	57.5	78	50.7	0	2	90	0.00	30.145 
06:45	57.6	57.6	57.6	78	50.8	0	3	90	0.00	30.151 
06:50	57.6	57.6	57.6	78	50.8	0	2	90	0.00	30.151 
06:55	57.6	57.6	57.6	78	50.8	0	2	90	0.00	30.151 
07:00	57.5	57.5	57.5	77	50.3	1	2	90	0.00	30.150 
07:05	57.5	57.5	57.5	77	50.3	1	3	90	0.00	30.150 
07:10	57.5	57.5	57.5	77	50.3	1	3	90	0.00	30.150 
07:15	57.5	57.5	57.5	77	50.3	1	4	90	0.00	30.150 
07:20	57.5	57.5	57.5	76	50.0	1	3	90	0.00	30.150 
07:25	57.5	57.5	57.5	76	50.0	1	4	90	0.00	30.150 
07:30	57.5	57.5	57.5	76	50.0	1	2	90	0.00	30.149 
07:35	57.6	57.6	57.6	76	50.1	1	3	90	0.00	30.149 
07:40	57.6	57.6	57.6	75	49.7	1	3	90	0.00	30.149 
07:45	57.6	57.6	57.6	74	49.4	1	3	90	0.00	30.155 
07:50	57.8	57.8	57.8	74	49.6	0	2	90	0.00	30.155 
07:55	57.8	57.8	57.8	73	49.2	1	3	90	0.00	30.155 
08:00	58.0	58.0	58.0	72	49.0	0	2	90	0.00	30.156 
08:05	58.1	58.1	58.1	71	48.7	0	1	90	0.00	30.156 
08:10	58.1	58.1	58.1	70	48.4	0	1	90	0.00	30.156 
08:15	58.3	58.3	58.3	69	48.2	0	3	90	0.00	30.159 
08:20	58.6	58.6	58.6	68	48.1	1	4	90	0.00	30.159 
08:25	58.7	58.7	58.7	67	47.8	0	2	90	0.00	30.159 
08:30	58.9	58.9	58.9	67	48.0	0	2	90	0.00	30.157 
08:35	59.0	59.0	59.0	67	48.1	0	2	90	0.00	30.157 
08:40	59.2	59.2	59.2	67	48.2	1	4	112	0.00	30.157 
08:45	59.2	59.2	59.2	67	48.2	1	4	112	0.00	30.158 
08:50	59.2	59.2	59.2	67	48.2	1	4	112	0.00	30.158 
08:55	59.3	59.3	59.3	67	48.3	1	3	90	0.00	30.158 
09:00	59.5	59.5	59.5	67	48.5	1	4	90	0.00	30.159 
09:05	59.5	59.5	59.5	67	48.5	1	4	90	0.00	30.159 
09:10	59.6	59.6	59.6	67	48.6	1	3	90	0.00	30.159 
09:15	59.8	59.8	59.8	66	48.4	2	5	90	0.00	30.158 
09:20	59.9	59.9	59.9	67	48.9	1	2	90	0.00	30.158 
09:25	59.9	59.9	59.9	67	48.9	1	3	90	0.00	30.158 
09:30	59.9	59.9	59.9	67	48.9	2	4	45	0.00	30.158 
09:35	60.1	60.1	60.1	68	49.5	1	4	90	0.00	30.158 
09:40	60.1	60.1	60.1	68	49.5	1	5	90	0.00	30.158 
09:45	60.2	60.2	60.2	68	49.6	1	3	90	0.00	30.157 
09:50	60.4	60.4	60.4	67	49.4	1	4	90	0.00	30.157 
09:55	60.5	60.5	60.5	67	49.5	1	4	90	0.00	30.157 
10:00	60.7	60.7	60.7	66	49.3	3	7	90	0.00	30.156 
10:05	60.9	60.9	60.9	66	49.5	2	4	90	0.00	30.156 
10:10	61.2	61.2	61.2	66	49.7	2	5	112	0.00	30.156 
10:15	61.3	61.3	61.3	65	49.4	2	5	90	0.00	30.156 
10:20	61.6	61.6	61.6	64	49.3	2	4	68	0.00	30.156 
10:25	61.8	61.8	61.8	64	49.5	1	3	90	0.00	30.156 
10:30	62.1	62.1	62.1	64	49.8	1	4	90	0.00	30.167 
10:35	62.9	62.9	62.9	62	49.7	1	3	90	0.00	30.167 
10:40	64.2	64.2	64.2	60	50.0	1	5	90	0.00	30.167 
10:45	64.8	64.8	64.8	57	49.2	3	7	90	0.00	30.167 
10:50	65.3	65.3	65.3	57	49.7	2	4	90	0.00	30.167 
10:55	65.6	65.6	65.6	56	49.5	2	6	90	0.00	30.167 
11:00	65.8	65.8	65.8	55	49.2	3	9	68	0.00	30.163 
11:05	66.3	66.3	66.3	54	49.1	2	6	90	0.00	30.163 
11:10	67.4	67.4	67.4	51	48.6	2	4	90	0.00	30.163 
11:15	67.4	67.4	67.4	50	48.1	3	7	90	0.00	30.169 
11:20	67.6	67.6	67.6	51	48.8	1	4	90	0.00	30.169 
11:25	67.9	67.9	67.9	49	48.0	3	6	90	0.00	30.169 
11:30	67.9	67.9	67.9	49	48.0	3	7	90	0.00	30.170 
11:35	68.1	68.1	68.1	49	48.2	3	7	90	0.00	30.170 
11:40	68.4	68.4	68.4	49	48.5	3	6	90	0.00	30.170 
11:45	68.8	68.8	68.8	47	47.7	2	5	90	0.00	30.158 
11:50	69.1	69.1	69.1	47	48.0	3	5	90	0.00	30.158 
11:55	69.6	69.6	69.6	46	47.9	2	6	90	0.00	30.158 
12:00	69.8	69.8	69.8	47	48.6	2	6	90	0.00	30.159 
12:05	70.6	70.6	70.6	45	48.2	2	5	90	0.00	30.159 
12:10	71.1	71.1	71.1	45	48.7	2	4	90	0.00	30.159 
12:15	71.5	71.5	71.5	44	48.4	2	8	45	0.00	30.153 
12:20	71.3	71.3	71.3	45	48.8	2	6	90	0.00	30.153 
12:25	71.3	71.3	71.3	45	48.8	3	8	90	0.00	30.153 
12:30	71.6	71.6	71.6	45	49.1	2	6	90	0.00	30.151 
12:35	72.0	72.0	72.0	44	48.9	2	7	112	0.00	30.151 
12:40	71.8	71.8	71.8	46	49.9	2	6	90	0.00	30.151 
12:45	71.8	71.8	71.8	46	49.9	3	7	112	0.00	30.147 
12:50	72.0	72.0	72.0	45	49.5	2	4	68	0.00	30.147 
12:55	72.5	72.5	72.5	45	49.9	3	8	90	0.00	30.147 
13:00	72.8	72.8	72.8	44	49.6	3	9	112	0.00	30.140 
13:05	73.3	73.3	73.3	43	49.4	2	7	90	0.00	30.140 
13:10	73.5	73.5	73.5	43	49.6	2	5	112	0.00	30.140 
13:15	73.5	73.5	73.5	42	49.0	3	9	90	0.00	30.135 
13:20	73.7	73.7	73.7	43	49.8	2	6	90	0.00	30.135 
13:25	73.9	73.9	73.9	42	49.3	3	6	90	0.00	30.135 
13:30	74.2	74.2	74.2	44	50.9	3	7	90	0.00	30.127 
13:35	74.7	74.7	74.7	43	50.7	2	5	112	0.00	30.127 
13:40	75.1	75.1	77.6	44	51.7	3	7	90	0.00	30.127 
13:45	75.3	75.3	77.7	43	51.2	2	7	112	0.00	30.116 
13:50	75.4	75.4	77.7	42	50.7	1	4	112	0.00	30.116 
13:55	75.6	75.6	77.7	41	50.2	2	9	90	0.00	30.116 
14:00	75.8	75.8	77.8	41	50.4	2	5	90	0.00	30.118 
14:05	76.0	76.0	77.9	42	51.2	1	8	68	0.00	30.118 
14:10	76.5	76.5	78.1	41	51.0	2	6	90	0.00	30.118 
14:15	77.0	77.0	78.3	41	51.5	0	1	158	0.00	30.113 
14:20	77.2	77.2	78.4	41	51.7	2	7	90	0.00	30.113 
14:25	77.2	77.2	78.4	42	52.3	2	5	112	0.00	30.113 
14:30	77.2	77.2	78.4	41	51.7	2	7	135	0.00	30.102 
14:35	77.2	77.2	78.4	41	51.7	2	8	90	0.00	30.102 
14:40	77.0	77.0	78.3	41	51.5	1	6	90	0.00	30.102 
14:45	77.4	77.4	78.6	43	53.1	1	5	90	0.00	30.102 
14:50	77.2	77.2	78.4	41	51.7	3	5	112	0.00	30.102 
14:55	76.8	76.8	78.2	42	51.9	1	4	112	0.00	30.102 
15:00	76.5	76.5	78.2	44	52.9	1	5	112	0.00	30.100 
15:05	76.7	76.7	78.2	42	51.9	1	4	90	0.00	30.100 
15:10	76.8	76.8	78.2	42	51.9	1	5	68	0.00	30.100 
15:15	76.8	76.8	78.2	42	51.9	2	5	68	0.00	30.094 
15:20	76.8	76.8	78.3	43	52.6	1	3	68	0.00	30.094 
15:25	77.0	77.0	78.4	43	52.8	0	1	68	0.00	30.094 
15:30	77.9	77.9	78.8	43	53.6	1	6	68	0.00	30.084 
15:35	78.6	78.6	79.0	40	52.2	1	4	112	0.00	30.084 
15:40	78.6	78.6	79.2	42	53.6	1	6	45	0.00	30.084 
15:45	78.6	78.6	79.1	41	52.9	1	4	90	0.00	30.073 
15:50	78.8	78.8	79.2	41	53.1	1	4	90	0.00	30.073 
15:55	78.8	78.8	79.2	40	52.4	3	7	90	0.00	30.073 
16:00	78.5	78.5	79.0	40	52.1	2	7	90	0.00	30.067 
16:05	78.1	78.1	78.9	42	53.1	1	3	112	0.00	30.067 
16:10	77.9	77.9	78.7	41	52.3	2	4	112	0.00	30.067 
16:15	77.6	77.6	78.6	42	52.7	3	10	90	0.00	30.065 
16:20	77.4	77.4	78.6	43	53.1	1	3	90	0.00	30.065 
16:25	77.6	77.6	78.7	43	53.3	1	3	90	0.00	30.065 
16:30	77.6	77.6	78.7	43	53.3	0	2	90	0.00	30.064 
16:35	77.7	77.7	78.7	43	53.4	1	3	90	0.00	30.064 
16:40	77.6	77.6	78.7	43	53.3	0	2	90	0.00	30.064 
16:45	77.6	77.6	78.7	43	53.3	0	1	90	0.00	30.064 
16:50	77.4	77.4	78.6	43	53.1	0	2	90	0.00	30.064 
16:55	77.4	77.4	78.6	44	53.8	0	2	90	0.00	30.064 
17:00	77.2	77.2	78.5	44	53.6	0	2	90	0.00	30.059 
17:05	77.2	77.2	78.5	45	54.2	0	1	90	0.00	30.059 
17:10	77.4	77.4	78.6	44	53.8	1	2	90	0.00	30.059 
17:15	77.4	77.4	78.6	45	54.4	1	3	90	0.00	30.056 
17:20	77.4	77.4	78.6	44	53.8	1	3	90	0.00	30.056 
17:25	77.6	77.6	78.7	43	53.3	0	2	90	0.00	30.056 
17:30	77.6	77.6	78.7	44	53.9	0	1	90	0.00	30.056 
17:35	77.7	77.7	78.8	44	54.0	0	1	90	0.00	30.056 
17:40	77.7	77.7	78.7	43	53.4	0	2	90	0.00	30.056 
17:45	77.7	77.7	78.8	44	54.0	0	1	90	0.00	30.056 
17:50	77.6	77.6	78.7	44	53.9	0	2	90	0.00	30.056 
17:55	77.4	77.4	78.6	44	53.8	0	1	90	0.00	30.056 
18:00	77.2	77.2	78.5	44	53.6	0	1	90	0.00	30.056 
18:05	77.2	77.2	78.5	45	54.2	0	1	90	0.00	30.056 
18:10	77.0	77.0	78.4	45	54.0	0	3	90	0.00	30.056 
18:15	77.0	77.0	78.5	46	54.6	1	3	90	0.00	30.054 
18:20	76.8	76.8	78.4	46	54.4	0	1	90	0.00	30.054 
18:25	76.8	76.8	78.4	46	54.4	0	2	90	0.00	30.054 
18:30	76.8	76.8	78.4	46	54.4	0	2	90	0.00	30.044 
18:35	76.8	76.8	78.4	47	55.0	0	0	---	0.00	30.044 
18:40	76.8	76.8	78.4	47	55.0	0	1	90	0.00	30.044 
18:45	76.7	76.7	78.4	47	54.9	0	2	90	0.00	30.044 
18:50	76.5	76.5	78.3	48	55.3	0	2	90	0.00	30.044 
18:55	76.3	76.3	78.2	47	54.6	0	3	90	0.00	30.044 
19:00	76.1	76.1	78.1	48	55.0	0	1	90	0.00	30.041 
19:05	76.1	76.1	78.1	49	55.5	0	1	90	0.00	30.041 
19:10	76.0	76.0	78.1	49	55.4	0	3	90	0.00	30.041 
19:15	76.0	76.0	78.1	50	56.0	1	2	90	0.00	30.040 
19:20	75.6	75.6	77.9	50	55.6	1	2	90	0.00	30.040 
19:25	75.3	75.3	77.7	51	55.9	0	2	90	0.00	30.040 
19:30	74.7	74.7	74.7	50	54.8	1	4	90	0.00	30.041 
19:35	74.4	74.4	74.4	51	55.1	1	3	90	0.00	30.041 
19:40	73.9	73.9	73.9	51	54.6	1	5	90	0.00	30.041 
19:45	73.5	73.5	73.5	53	55.3	1	3	90	0.00	30.040 
19:50	73.2	73.2	73.2	53	55.0	1	3	90	0.00	30.040 
19:55	73.0	73.0	73.0	53	54.8	1	3	90	0.00	30.040 
20:00	72.8	72.8	72.8	53	54.7	1	4	90	0.00	30.042 
20:05	72.7	72.7	72.7	54	55.1	1	3	90	0.00	30.042 
20:10	72.7	72.7	72.7	54	55.1	1	2	90	0.00	30.042 
20:15	72.5	72.5	72.5	54	54.9	2	5	90	0.00	30.040 
20:20	72.3	72.3	72.3	54	54.7	1	3	90	0.00	30.040 
20:25	72.3	72.3	72.3	55	55.2	1	3	90	0.00	30.040 
20:30	72.1	72.1	72.1	55	55.0	1	3	90	0.00	30.042 
20:35	72.1	72.1	72.1	56	55.5	1	3	90	0.00	30.042 
20:40	72.0	72.0	72.0	56	55.4	1	2	90	0.00	30.042 
20:45	72.0	72.0	72.0	56	55.4	1	3	90	0.00	30.043 
20:50	72.0	72.0	72.0	55	54.9	2	4	90	0.00	30.043 
20:55	71.8	71.8	71.8	56	55.2	1	3	68	0.00	30.043 
21:00	71.8	71.8	71.8	56	55.2	1	3	68	0.00	30.047 
21:05	71.6	71.6	71.6	56	55.1	1	4	68	0.00	30.047 
21:10	71.6	71.6	71.6	56	55.1	1	4	68	0.00	30.047 
21:15	71.6	71.6	71.6	56	55.1	2	4	68	0.00	30.042 
21:20	71.5	71.5	71.5	56	55.0	2	4	90	0.00	30.042 
21:25	71.5	71.5	71.5	56	55.0	2	4	90	0.00	30.042 
21:30	71.3	71.3	71.3	57	55.3	1	4	90	0.00	30.047 
21:35	71.1	71.1	71.1	57	55.1	1	2	68	0.00	30.047 
21:40	70.8	70.8	70.8	58	55.3	1	4	68	0.00	30.047 
21:45	70.6	70.6	70.6	58	55.1	1	3	68	0.00	30.047 
21:50	70.3	70.3	70.3	58	54.8	1	3	68	0.00	30.047 
21:55	70.3	70.3	70.3	58	54.8	1	5	90	0.00	30.047 
22:00	70.1	70.1	70.1	59	55.1	1	3	90	0.00	30.056 
22:05	69.8	69.8	69.8	60	55.3	1	2	90	0.00	30.056 
22:10	69.6	69.6	69.6	60	55.1	1	3	90	0.00	30.056 
22:15	69.3	69.3	69.3	60	54.8	1	3	90	0.00	30.053 
22:20	69.1	69.1	69.1	61	55.1	1	4	90	0.00	30.053 
22:25	68.9	68.9	68.9	62	55.3	1	3	90	0.00	30.053 
22:30	68.6	68.6	68.6	62	55.0	2	4	90	0.00	30.048 
22:35	68.1	68.1	68.1	63	55.0	2	4	90	0.00	30.048 
22:40	67.8	67.8	67.8	64	55.2	1	4	90	0.00	30.048 
22:45	67.4	67.4	67.4	64	54.8	2	5	90	0.00	30.047 
22:50	67.1	67.1	67.1	65	54.9	1	3	68	0.00	30.047 
22:55	66.9	66.9	66.9	65	54.7	1	7	68	0.00	30.047 
23:00	66.8	66.8	66.8	65	54.6	1	3	68	0.00	30.044 
23:05	66.4	66.4	66.4	65	54.3	1	2	68	0.00	30.044 
23:10	66.3	66.3	66.3	65	54.2	1	2	68	0.00	30.044 
23:15	66.1	66.1	66.1	65	54.0	1	4	90	0.00	30.042 
23:20	66.0	66.0	66.0	66	54.3	1	4	90	0.00	30.042 
23:25	65.8	65.8	65.8	66	54.1	1	3	90	0.00	30.042 
23:30	65.6	65.6	65.6	66	53.9	1	3	90	0.00	30.040 
23:35	65.5	65.5	65.5	66	53.8	0	3	90	0.00	30.040 
23:40	65.3	65.3	65.3	67	54.1	0	2	90	0.00	30.040 
23:45	65.2	65.2	65.2	67	54.0	0	3	90	0.00	30.040 
23:50	65.0	65.0	65.0	67	53.8	0	2	90	0.00	30.040 
23:55	65.0	65.0	65.0	68	54.2	0	2	90	0.00	30.040 

CoCoRaHS
IN-AL-39
A2 Web Hosting
Creative Commons License
GoDaddy
search engine by freefind advanced

loaded 2018-11-20 03:05:51 • last modified 2010-11-18 10:43:29
Privacy PolicyDisclaimer
• wx.awcolley.com is powered by PmWiki v.2002016 •
• all content (unless otherwise noted) © 2018 A W Colley